createdAt,value
2023-02-19T00:02:01.560Z,85.83
2023-02-19T00:04:37.849Z,85.78
2023-02-19T00:07:14.501Z,85.80
2023-02-19T00:09:50.987Z,85.74
2023-02-19T00:12:28.873Z,85.74
2023-02-19T00:15:05.611Z,85.81
2023-02-19T00:17:42.310Z,85.82
2023-02-19T00:20:19.402Z,85.88
2023-02-19T00:22:55.956Z,85.90
2023-02-19T00:25:33.586Z,85.94
2023-02-19T00:28:10.486Z,85.99
2023-02-19T00:30:46.738Z,86.16
2023-02-19T00:33:23.275Z,86.11
2023-02-19T00:36:02.746Z,86.22
2023-02-19T00:38:42.165Z,86.28
2023-02-19T00:41:21.541Z,86.17
2023-02-19T00:44:00.568Z,86.09
2023-02-19T00:46:40.668Z,86.05
2023-02-19T00:49:24.597Z,86.09
2023-02-19T00:52:01.380Z,86.05
2023-02-19T00:54:37.644Z,86.03
2023-02-19T00:57:13.902Z,85.95
2023-02-19T00:59:50.368Z,85.99
2023-02-19T01:02:27.850Z,85.95
2023-02-19T01:05:05.712Z,85.99
2023-02-19T01:07:43.155Z,85.94
2023-02-19T01:10:19.705Z,85.89
2023-02-19T01:12:56.187Z,85.93
2023-02-19T01:15:33.558Z,85.92
2023-02-19T01:18:11.086Z,85.95
2023-02-19T01:20:48.960Z,85.92
2023-02-19T01:23:26.054Z,85.98
2023-02-19T01:26:04.685Z,85.97
2023-02-19T01:28:41.279Z,85.96
2023-02-19T01:31:22.565Z,86.01
2023-02-19T01:34:04.353Z,86.01
2023-02-19T01:36:40.781Z,86.05
2023-02-19T01:39:18.071Z,86.04
2023-02-19T01:41:54.363Z,86.05
2023-02-19T01:45:25.410Z,86.03
2023-02-19T01:48:12.640Z,85.95
2023-02-19T01:50:54.784Z,85.88
2023-02-19T01:53:38.502Z,85.82
2023-02-19T01:56:17.165Z,85.76
2023-02-19T01:58:54.273Z,85.71
2023-02-19T02:01:30.696Z,85.63
2023-02-19T02:04:11.027Z,85.59
2023-02-19T02:06:54.095Z,85.58
2023-02-19T02:09:51.301Z,85.65
2023-02-19T02:12:27.831Z,85.61
2023-02-19T02:15:05.022Z,85.60
2023-02-19T02:17:54.093Z,85.67
2023-02-19T02:21:05.690Z,85.82
2023-02-19T02:24:13.037Z,85.98
2023-02-19T02:27:17.506Z,86.01
2023-02-19T02:30:42.839Z,86.07
2023-02-19T02:33:34.236Z,86.22
2023-02-19T02:36:13.649Z,86.33
2023-02-19T02:38:54.376Z,86.22
2023-02-19T02:41:31.463Z,86.26
2023-02-19T02:44:08.659Z,86.42
2023-02-19T02:46:49.507Z,86.39
2023-02-19T02:49:28.775Z,86.51
2023-02-19T02:52:26.785Z,86.58
2023-02-19T02:55:06.294Z,86.52
2023-02-19T02:57:43.189Z,86.46
2023-02-19T03:00:21.189Z,86.56
2023-02-19T03:02:59.114Z,86.63
2023-02-19T03:05:54.073Z,86.73
2023-02-19T03:08:38.316Z,86.66
2023-02-19T03:11:34.120Z,86.84
2023-02-19T03:14:38.959Z,87.04
2023-02-19T03:17:39.364Z,87.09
2023-02-19T03:20:24.164Z,87.22
2023-02-19T03:23:03.260Z,87.22
2023-02-19T03:26:00.788Z,87.07
2023-02-19T03:29:18.499Z,87.02
2023-02-19T03:31:59.534Z,87.23
2023-02-19T03:34:44.206Z,87.29
2023-02-19T03:37:29.822Z,87.34
2023-02-19T03:40:09.712Z,87.36
2023-02-19T03:42:59.992Z,87.40
2023-02-19T03:46:03.875Z,87.43
2023-02-19T03:48:53.415Z,87.63
2023-02-19T03:51:41.583Z,87.69
2023-02-19T03:54:28.528Z,87.71
2023-02-19T03:57:17.792Z,87.83
2023-02-19T04:00:04.053Z,87.93
2023-02-19T04:02:58.311Z,87.98
2023-02-19T04:05:42.740Z,88.13
2023-02-19T04:08:26.452Z,88.22
2023-02-19T04:11:10.064Z,88.30
2023-02-19T04:13:56.734Z,88.27
2023-02-19T04:16:38.308Z,88.25
2023-02-19T04:19:21.216Z,88.34
2023-02-19T04:21:59.792Z,88.51
2023-02-19T04:24:43.022Z,88.63
2023-02-19T04:27:19.909Z,88.65
2023-02-19T04:29:56.173Z,88.55
2023-02-19T04:32:32.742Z,88.67
2023-02-19T04:35:10.026Z,88.76
2023-02-19T04:37:46.283Z,88.75
2023-02-19T04:40:23.867Z,88.92
2023-02-19T04:43:00.225Z,88.97
2023-02-19T04:45:38.149Z,88.89
2023-02-19T04:48:15.020Z,88.94
2023-02-19T04:50:51.279Z,89.06
2023-02-19T04:53:27.847Z,89.01
2023-02-19T04:56:11.858Z,89.03
2023-02-19T04:58:48.872Z,89.12
2023-02-19T05:01:26.005Z,89.21
2023-02-19T05:04:02.360Z,89.21
2023-02-19T05:06:38.768Z,89.29
2023-02-19T05:09:15.152Z,89.31
2023-02-19T05:11:51.468Z,89.43
2023-02-19T05:14:28.144Z,89.58
2023-02-19T05:17:04.372Z,89.58
2023-02-19T05:19:40.822Z,89.72
2023-02-19T05:22:17.385Z,89.73
2023-02-19T05:24:53.553Z,89.81
2023-02-19T05:27:31.361Z,89.73
2023-02-19T05:30:09.899Z,89.66
2023-02-19T05:32:46.311Z,89.63
2023-02-19T05:35:22.907Z,89.62
2023-02-19T05:37:59.278Z,89.69
2023-02-19T05:40:35.872Z,89.70
2023-02-19T05:43:13.997Z,89.67
2023-02-19T05:45:50.524Z,89.74
2023-02-19T05:48:26.810Z,89.66
2023-02-19T05:51:11.765Z,89.66
2023-02-19T05:53:49.689Z,89.78
2023-02-19T05:56:35.150Z,89.86
2023-02-19T05:59:20.637Z,90.00
2023-02-19T06:01:58.805Z,90.05
2023-02-19T06:04:35.286Z,90.05
2023-02-19T06:07:12.146Z,90.14
2023-02-19T06:09:52.980Z,90.15
2023-02-19T06:12:29.686Z,90.04
2023-02-19T06:15:07.238Z,90.05
2023-02-19T06:17:43.645Z,90.15
2023-02-19T06:20:20.766Z,90.17
2023-02-19T06:22:57.363Z,90.24
2023-02-19T06:25:33.810Z,90.32
2023-02-19T06:28:10.756Z,90.33
2023-02-19T06:30:47.080Z,90.33
2023-02-19T06:33:23.383Z,90.29
2023-02-19T06:36:03.847Z,90.28
2023-02-19T06:38:40.068Z,90.29
2023-02-19T06:41:17.079Z,90.21
2023-02-19T06:43:53.452Z,90.23
2023-02-19T06:46:29.862Z,90.23
2023-02-19T06:49:08.280Z,90.26
2023-02-19T06:51:45.086Z,90.24
2023-02-19T06:54:21.438Z,90.29
2023-02-19T06:56:59.242Z,90.26
2023-02-19T06:59:35.801Z,90.10
2023-02-19T07:02:14.566Z,90.07
2023-02-19T07:04:52.062Z,90.00
2023-02-19T07:07:28.430Z,89.96
2023-02-19T07:10:05.362Z,89.83
2023-02-19T07:12:41.664Z,89.91
2023-02-19T07:15:18.241Z,89.89
2023-02-19T07:17:54.522Z,89.87
2023-02-19T07:20:30.971Z,89.86
2023-02-19T07:23:07.791Z,89.83
2023-02-19T07:25:45.813Z,89.80
2023-02-19T07:28:22.153Z,89.73
2023-02-19T07:31:03.090Z,89.73
2023-02-19T07:33:39.918Z,89.68
2023-02-19T07:36:18.189Z,89.66
2023-02-19T07:39:01.688Z,89.63
2023-02-19T07:41:38.024Z,89.48
2023-02-19T07:44:16.995Z,89.33
2023-02-19T07:46:53.232Z,89.24
2023-02-19T07:49:29.993Z,89.11
2023-02-19T07:52:07.170Z,88.92
2023-02-19T07:54:43.784Z,88.81
2023-02-19T07:57:20.256Z,88.75
2023-02-19T07:59:58.948Z,88.55
2023-02-19T08:02:49.265Z,88.40
2023-02-19T08:05:25.874Z,88.25
2023-02-19T08:08:03.262Z,88.12
2023-02-19T08:10:57.393Z,88.02
2023-02-19T08:13:34.838Z,87.98
2023-02-19T08:16:30.008Z,87.95
2023-02-19T08:19:15.865Z,87.89
2023-02-19T08:21:53.748Z,87.86
2023-02-19T08:24:36.320Z,87.84
2023-02-19T08:27:30.813Z,87.85
2023-02-19T08:30:10.971Z,87.93
2023-02-19T08:32:47.565Z,87.89
2023-02-19T08:35:24.000Z,87.89
2023-02-19T08:38:03.260Z,87.82
2023-02-19T08:40:42.555Z,87.70
2023-02-19T08:43:20.784Z,87.60
2023-02-19T08:45:58.782Z,87.39
2023-02-19T08:48:35.381Z,87.27
2023-02-19T08:51:14.378Z,87.14
2023-02-19T08:53:52.015Z,87.06
2023-02-19T08:56:28.294Z,86.97
2023-02-19T08:59:04.639Z,86.90
2023-02-19T09:01:41.356Z,86.85
2023-02-19T09:04:18.161Z,86.88
2023-02-19T09:06:54.476Z,86.90
2023-02-19T09:09:30.836Z,86.90
2023-02-19T09:12:10.640Z,86.92
2023-02-19T09:14:47.022Z,86.99
2023-02-19T09:17:23.676Z,87.05
2023-02-19T09:20:00.124Z,87.06
2023-02-19T09:22:36.328Z,87.04
2023-02-19T09:25:13.702Z,87.11
2023-02-19T09:27:50.095Z,87.18
2023-02-19T09:30:26.833Z,87.23
2023-02-19T09:33:03.248Z,87.28
2023-02-19T09:35:43.070Z,87.27
2023-02-19T09:38:19.372Z,87.23
2023-02-19T09:40:57.629Z,87.22
2023-02-19T09:43:34.878Z,87.21
2023-02-19T09:46:34.057Z,87.21
2023-02-19T09:49:19.820Z,87.25
2023-02-19T09:52:05.328Z,87.21
2023-02-19T09:54:43.797Z,87.20
2023-02-19T09:57:24.866Z,87.22
2023-02-19T10:00:14.474Z,87.22
2023-02-19T10:02:55.699Z,87.19
2023-02-19T10:05:33.412Z,87.18
2023-02-19T10:08:19.483Z,86.97
2023-02-19T10:10:56.465Z,86.83
2023-02-19T10:13:41.023Z,86.62
2023-02-19T10:16:23.892Z,86.53
2023-02-19T10:19:00.349Z,86.45
2023-02-19T10:21:38.378Z,86.40
2023-02-19T10:24:26.914Z,86.38
2023-02-19T10:27:03.455Z,86.38
2023-02-19T10:29:39.824Z,86.32
2023-02-19T10:32:24.349Z,86.20
2023-02-19T10:35:20.847Z,85.99
2023-02-19T10:37:57.872Z,85.83
2023-02-19T10:40:35.254Z,85.72
2023-02-19T10:43:33.198Z,85.73
2023-02-19T10:46:22.836Z,85.71
2023-02-19T10:49:03.396Z,85.76
2023-02-19T10:51:43.568Z,85.73
2023-02-19T10:54:29.825Z,85.44
2023-02-19T10:57:33.164Z,85.43
2023-02-19T11:00:27.080Z,85.19
2023-02-19T11:03:26.221Z,85.06
2023-02-19T11:06:09.452Z,85.02
2023-02-19T11:09:00.189Z,84.82
2023-02-19T11:11:42.551Z,84.71
2023-02-19T11:14:25.955Z,84.65
2023-02-19T11:17:06.319Z,84.51
2023-02-19T11:19:48.416Z,84.41
2023-02-19T11:22:39.133Z,84.43
2023-02-19T11:25:27.126Z,84.38
2023-02-19T11:28:09.751Z,84.35
2023-02-19T11:30:48.292Z,84.43
2023-02-19T11:33:33.670Z,84.41
2023-02-19T11:39:29.591Z,84.23
2023-02-19T11:42:36.375Z,84.35
2023-02-19T11:45:36.934Z,84.51
2023-02-19T11:49:13.895Z,84.49
2023-02-19T11:52:14.983Z,84.44
2023-02-19T11:55:10.536Z,84.45
2023-02-19T11:57:55.871Z,84.37
2023-02-19T12:00:39.980Z,84.30
2023-02-19T12:03:50.012Z,84.26
2023-02-19T12:06:37.826Z,84.09
2023-02-19T12:09:48.481Z,83.99
2023-02-19T12:12:46.857Z,83.94
2023-02-19T12:15:59.232Z,83.93
2023-02-19T12:19:11.846Z,83.82
2023-02-19T12:22:21.806Z,83.70
2023-02-19T12:25:50.439Z,83.57
2023-02-19T12:29:18.298Z,83.40
2023-02-19T12:32:50.181Z,83.33
2023-02-19T12:35:59.772Z,83.20
2023-02-19T12:38:46.250Z,83.17
2023-02-19T12:41:39.341Z,83.20
2023-02-19T12:44:28.128Z,83.23
2023-02-19T12:47:08.508Z,83.27
2023-02-19T12:49:55.991Z,83.28
2023-02-19T12:52:41.612Z,83.23
2023-02-19T12:55:29.909Z,83.32
2023-02-19T12:58:12.687Z,83.34
2023-02-19T13:00:59.148Z,83.36
2023-02-19T13:03:42.484Z,83.38
2023-02-19T13:06:36.475Z,83.32
2023-02-19T13:09:20.876Z,83.38
2023-02-19T13:12:06.840Z,83.41
2023-02-19T13:14:49.976Z,83.44
2023-02-19T13:17:38.773Z,83.40
2023-02-19T13:20:30.672Z,83.33
2023-02-19T13:23:37.020Z,83.23
2023-02-19T13:26:40.304Z,82.90
2023-02-19T13:29:53.394Z,82.46
2023-02-19T13:33:00.173Z,81.74
2023-02-19T13:36:08.222Z,81.50
2023-02-19T13:38:50.175Z,81.42
2023-02-19T13:41:33.262Z,81.24
2023-02-19T13:44:20.633Z,81.29
2023-02-19T13:46:57.354Z,81.01
2023-02-19T13:49:53.122Z,80.88
2023-02-19T13:52:48.253Z,80.50
2023-02-19T13:56:05.206Z,80.30
2023-02-19T13:59:01.573Z,80.10
2023-02-19T14:02:27.192Z,79.90
2023-02-19T14:05:10.559Z,79.82
2023-02-19T14:08:04.041Z,79.74
2023-02-19T14:11:05.076Z,79.82
2023-02-19T14:14:07.042Z,79.88
2023-02-19T14:17:28.612Z,79.95
2023-02-19T14:20:45.950Z,80.01
2023-02-19T14:23:27.161Z,80.05
2023-02-19T14:26:09.704Z,79.97
2023-02-19T14:28:51.858Z,79.78
2023-02-19T14:31:38.340Z,79.50
2023-02-19T14:34:27.023Z,79.25
2023-02-19T14:37:06.999Z,79.03
2023-02-19T14:39:45.502Z,78.84
2023-02-19T14:42:33.628Z,78.77
2023-02-19T14:45:17.273Z,78.50
2023-02-19T14:47:58.654Z,78.64
2023-02-19T14:50:37.937Z,78.65
2023-02-19T14:53:18.765Z,78.57
2023-02-19T14:55:58.391Z,78.75
2023-02-19T14:58:40.927Z,78.84
2023-02-19T15:01:32.119Z,78.85
2023-02-19T15:04:22.268Z,78.95
2023-02-19T15:07:02.397Z,78.91
2023-02-19T15:09:44.821Z,78.85
2023-02-19T15:12:26.780Z,78.87
2023-02-19T15:15:08.039Z,78.85
2023-02-19T15:17:45.879Z,78.93
2023-02-19T15:20:28.118Z,78.81
2023-02-19T15:23:08.914Z,78.61
2023-02-19T15:25:48.222Z,78.69
2023-02-19T15:28:36.599Z,78.70
2023-02-19T15:31:20.297Z,78.70
2023-02-19T15:33:57.762Z,78.77
2023-02-19T15:36:38.071Z,78.86
2023-02-19T15:39:24.229Z,78.98
2023-02-19T15:42:07.615Z,79.06
2023-02-19T15:44:53.809Z,79.10
2023-02-19T15:47:39.511Z,79.24
2023-02-19T15:50:24.246Z,79.24
2023-02-19T15:53:09.449Z,79.23
2023-02-19T15:55:56.997Z,79.20
2023-02-19T15:58:42.950Z,79.19
2023-02-19T16:01:26.335Z,79.06
2023-02-19T16:04:03.632Z,79.01
2023-02-19T16:06:57.167Z,79.04
2023-02-19T16:09:40.462Z,79.08
2023-02-19T16:12:28.270Z,79.05
2023-02-19T16:15:15.288Z,79.07
2023-02-19T16:17:52.225Z,79.12
2023-02-19T16:20:34.835Z,79.07
2023-02-19T16:23:22.074Z,79.22
2023-02-19T16:26:06.211Z,79.23
2023-02-19T16:28:51.563Z,79.32
2023-02-19T16:31:29.963Z,79.43
2023-02-19T16:37:40.919Z,79.38
2023-02-19T16:41:16.464Z,79.42
2023-02-19T16:43:53.043Z,79.46
2023-02-19T16:46:30.541Z,79.33
2023-02-19T16:49:07.374Z,79.24
2023-02-19T16:51:45.468Z,79.21
2023-02-19T16:54:23.544Z,78.95
2023-02-19T16:57:00.468Z,78.86
2023-02-19T16:59:37.336Z,78.73
2023-02-19T17:02:22.236Z,78.52
2023-02-19T17:04:58.968Z,78.20
2023-02-19T17:07:35.496Z,77.91
2023-02-19T17:10:15.170Z,77.82
2023-02-19T17:12:51.502Z,77.64
2023-02-19T17:15:28.258Z,77.43
2023-02-19T17:18:05.150Z,77.23
2023-02-19T17:20:42.185Z,77.18
2023-02-19T17:23:19.434Z,77.15
2023-02-19T17:25:56.046Z,77.14
2023-02-19T17:28:32.403Z,77.05
2023-02-19T17:31:10.063Z,77.13
2023-02-19T17:33:47.244Z,77.11
2023-02-19T17:36:27.936Z,77.16
2023-02-19T17:39:07.371Z,77.14
2023-02-19T17:41:44.732Z,77.08
2023-02-19T17:44:22.011Z,77.12
2023-02-19T17:46:58.681Z,77.07
2023-02-19T17:49:36.813Z,77.18
2023-02-19T17:52:17.823Z,77.22
2023-02-19T17:54:57.635Z,77.13
2023-02-19T17:57:34.040Z,77.15
2023-02-19T18:00:20.447Z,77.12
2023-02-19T18:02:57.824Z,76.93
2023-02-19T18:05:34.663Z,76.94
2023-02-19T18:08:11.424Z,76.92
2023-02-19T18:10:47.919Z,76.81
2023-02-19T18:13:24.742Z,76.91
2023-02-19T18:16:01.434Z,76.98
2023-02-19T18:18:38.388Z,77.08
2023-02-19T18:21:16.781Z,77.05
2023-02-19T18:23:54.204Z,77.07
2023-02-19T18:26:30.810Z,76.97
2023-02-19T18:29:07.841Z,76.98
2023-02-19T18:31:44.618Z,77.01
2023-02-19T18:34:24.591Z,77.03
2023-02-19T18:37:01.479Z,77.07
2023-02-19T18:39:38.847Z,77.07
2023-02-19T18:42:16.358Z,77.06
2023-02-19T18:44:55.597Z,76.99
2023-02-19T18:47:32.132Z,76.98
2023-02-19T18:50:10.826Z,77.05
2023-02-19T18:52:47.472Z,77.10
2023-02-19T18:55:24.908Z,77.18
2023-02-19T18:58:01.755Z,77.26
2023-02-19T19:00:39.441Z,77.36
2023-02-19T19:03:16.222Z,77.43
2023-02-19T19:05:52.962Z,77.50
2023-02-19T19:08:30.736Z,77.61
2023-02-19T19:11:07.884Z,77.86
2023-02-19T19:13:46.365Z,77.96
2023-02-19T19:16:26.265Z,77.99
2023-02-19T19:19:03.256Z,78.07
2023-02-19T19:21:40.632Z,78.19
2023-02-19T19:24:18.170Z,78.24
2023-02-19T19:26:57.518Z,78.20
2023-02-19T19:29:34.753Z,78.29
2023-02-19T19:32:12.373Z,78.45
2023-02-19T19:34:49.654Z,78.65
2023-02-19T19:37:28.491Z,78.79
2023-02-19T19:40:05.970Z,78.96
2023-02-19T19:42:44.520Z,79.00
2023-02-19T19:45:26.164Z,78.99
2023-02-19T19:48:03.477Z,79.11
2023-02-19T19:50:40.320Z,79.15
2023-02-19T19:53:17.292Z,79.30
2023-02-19T19:55:54.123Z,79.40
2023-02-19T19:58:30.778Z,79.38
2023-02-19T20:01:08.737Z,79.46
2023-02-19T20:03:45.810Z,79.42
2023-02-19T20:06:32.280Z,79.48
2023-02-19T20:09:09.369Z,79.54
2023-02-19T20:11:53.276Z,79.58
2023-02-19T20:14:31.781Z,79.61
2023-02-19T20:17:09.683Z,79.63
2023-02-19T20:19:48.685Z,79.74
2023-02-19T20:22:25.511Z,79.78
2023-02-19T20:25:03.107Z,79.82
2023-02-19T20:27:40.169Z,79.86
2023-02-19T20:30:20.075Z,79.89
2023-02-19T20:32:58.372Z,79.91
2023-02-19T20:35:35.964Z,79.97
2023-02-19T20:38:17.508Z,80.03
2023-02-19T20:40:54.835Z,80.09
2023-02-19T20:43:31.523Z,80.15
2023-02-19T20:46:08.783Z,80.21
2023-02-19T20:48:45.843Z,80.24
2023-02-19T20:51:23.124Z,80.29
2023-02-19T20:53:59.928Z,80.38
2023-02-19T20:56:36.649Z,80.40
2023-02-19T20:59:13.491Z,80.47
2023-02-19T21:01:50.570Z,80.60
2023-02-19T21:04:28.096Z,80.67
2023-02-19T21:07:06.635Z,80.71
2023-02-19T21:09:43.832Z,80.71
2023-02-19T21:12:20.854Z,80.73
2023-02-19T21:14:57.286Z,80.78
2023-02-19T21:17:34.633Z,80.85
2023-02-19T21:20:14.054Z,80.90
2023-02-19T21:22:51.195Z,80.95
2023-02-19T21:25:28.084Z,81.02
2023-02-19T21:28:05.561Z,81.05
2023-02-19T21:30:42.173Z,81.06
2023-02-19T21:33:19.511Z,81.08
2023-02-19T21:35:57.628Z,81.19
2023-02-19T21:38:34.598Z,81.27
2023-02-19T21:41:11.829Z,81.35
2023-02-19T21:43:48.325Z,81.39
2023-02-19T21:46:26.371Z,81.45
2023-02-19T21:49:03.921Z,81.55
2023-02-19T21:51:43.705Z,81.69
2023-02-19T21:54:25.792Z,81.74
2023-02-19T21:57:06.117Z,81.79
2023-02-19T21:59:42.922Z,81.83
2023-02-19T22:02:22.163Z,81.89
2023-02-19T22:04:59.668Z,81.98
2023-02-19T22:07:36.732Z,82.09
2023-02-19T22:10:16.739Z,82.16
2023-02-19T22:12:53.363Z,82.21
2023-02-19T22:15:29.989Z,82.42
2023-02-19T22:18:06.979Z,82.60
2023-02-19T22:20:43.692Z,82.62
2023-02-19T22:23:20.780Z,82.56
2023-02-19T22:25:57.738Z,82.51
2023-02-19T22:28:34.465Z,82.50
2023-02-19T22:31:13.309Z,82.56
2023-02-19T22:33:50.835Z,82.58
2023-02-19T22:36:31.507Z,82.57
2023-02-19T22:39:09.653Z,82.59
2023-02-19T22:41:49.418Z,82.63
2023-02-19T22:44:26.153Z,82.66
2023-02-19T22:47:02.653Z,82.63
2023-02-19T22:49:43.859Z,82.67
2023-02-19T22:52:21.051Z,82.59
2023-02-19T22:54:58.643Z,82.59
2023-02-19T22:57:36.384Z,82.67
2023-02-19T23:00:21.708Z,82.80
2023-02-19T23:02:57.961Z,82.92
2023-02-19T23:05:34.727Z,82.90
2023-02-19T23:08:11.324Z,82.90
2023-02-19T23:10:47.899Z,83.01
2023-02-19T23:13:24.363Z,82.97
2023-02-19T23:16:01.055Z,82.98
2023-02-19T23:18:37.874Z,82.96
2023-02-19T23:21:14.880Z,83.01
2023-02-19T23:23:51.925Z,82.97
2023-02-19T23:26:28.482Z,83.07
2023-02-19T23:29:05.266Z,83.07
2023-02-19T23:31:41.617Z,83.12
2023-02-19T23:34:19.546Z,83.09
2023-02-19T23:36:59.563Z,83.15
2023-02-19T23:39:35.903Z,83.20
2023-02-19T23:42:16.900Z,83.21
2023-02-19T23:44:53.460Z,83.26
2023-02-19T23:47:30.772Z,83.19
2023-02-19T23:50:08.544Z,83.07
2023-02-19T23:52:44.996Z,82.95
2023-02-19T23:55:21.409Z,82.82
2023-02-19T23:57:57.748Z,82.82
